Time;durP1;ratioP1;P1;durP2;ratioP2;P2;SDS_P1;SDS_P2;PMS_P1;PMS_P2;Temp;Humidity;BMP_temperature;BMP_pressure;BME280_temperature;BME280_humidity;BME280_pressure;Samples;Min_cycle;Max_cycle;Signal;HPM_P1;HPM_P2
2021/12/30 00:01:25;;;;;;;;;49.67;47.33;;;;;-1.86;81.72;101469.56;6244831;23;8777;-68
2021/12/30 00:04:22;;;;;;;;;61.33;48.00;;;;;-1.72;81.50;101477.28;6244984;23;8878;-67
2021/12/30 00:07:17;;;;;;;;;33.67;33.00;;;;;-1.60;80.62;101479.25;6244425;23;8819;-67
2021/12/30 00:10:14;;;;;;;;;39.33;37.33;;;;;-1.64;80.74;101475.31;6224884;23;8789;-67
2021/12/30 00:13:11;;;;;;;;;33.67;33.67;;;;;-1.73;81.54;101482.94;6245764;22;9499;-67
2021/12/30 00:16:06;;;;;;;;;34.00;34.00;;;;;-1.69;81.36;101478.72;6224683;23;8781;-67
2021/12/30 00:19:03;;;;;;;;;36.67;33.33;;;;;-1.59;80.85;101476.28;6244712;23;8774;-67
2021/12/30 00:21:59;;;;;;;;;42.00;35.33;;;;;-1.71;80.49;101481.66;6244732;23;8781;-68
2021/12/30 00:24:55;;;;;;;;;31.33;31.00;;;;;-1.73;81.28;101491.91;6244351;23;8891;-67
2021/12/30 00:27:50;;;;;;;;;41.33;41.33;;;;;-1.81;80.61;101486.81;6244495;23;8777;-68
2021/12/30 00:30:46;;;;;;;;;48.67;42.67;;;;;-1.83;81.07;101485.41;6244859;23;9486;-68
2021/12/30 00:33:43;;;;;;;;;40.00;38.33;;;;;-1.83;81.64;101477.25;6245658;23;8770;-68
2021/12/30 00:36:38;;;;;;;;;24.00;19.00;;;;;-1.70;81.43;101486.03;6244479;23;8805;-68
2021/12/30 00:39:34;;;;;;;;;24.67;24.67;;;;;-1.64;81.13;101483.44;6244626;23;8806;-67
2021/12/30 00:42:29;;;;;;;;;22.67;19.67;;;;;-1.65;80.62;101484.50;6244573;23;8782;-68
2021/12/30 00:45:28;;;;;;;;;17.00;15.00;;;;;-1.59;79.95;101489.03;6244566;23;8769;-68
2021/12/30 00:48:23;;;;;;;;;21.00;19.00;;;;;-1.57;80.49;101497.75;6245473;22;8789;-68
2021/12/30 00:51:19;;;;;;;;;24.00;21.67;;;;;-1.62;80.74;101497.59;6244063;23;8789;-68
2021/12/30 00:54:15;;;;;;;;;21.00;18.00;;;;;-1.77;79.39;101498.00;6244368;23;8817;-68
2021/12/30 00:57:11;;;;;;;;;21.67;21.67;;;;;-1.89;79.37;101510.72;6244111;23;8856;-68
2021/12/30 01:00:11;;;;;;;;;25.67;25.00;;;;;-1.80;80.92;101503.91;6244465;23;8822;-68
2021/12/30 01:03:07;;;;;;;;;26.33;26.33;;;;;-1.72;80.26;101503.59;6244261;23;8777;-67
2021/12/30 01:06:04;;;;;;;;;26.33;26.33;;;;;-1.69;80.39;101501.25;6244288;23;8793;-69
2021/12/30 01:08:59;;;;;;;;;20.33;19.67;;;;;-1.73;80.25;101507.38;6243384;23;8782;-69
2021/12/30 01:11:56;;;;;;;;;28.67;26.33;;;;;-1.67;81.49;101498.31;6224334;23;8801;-68
2021/12/30 01:14:52;;;;;;;;;27.33;27.33;;;;;-1.61;81.00;101499.25;6244071;23;8859;-70
2021/12/30 01:18:20;;;;;;;;;27.00;27.00;;;;;-1.66;80.44;101491.00;6243937;23;8777;-69
2021/12/30 01:21:13;;;;;;;;;21.67;21.67;;;;;-1.63;79.84;101494.06;6244386;23;8773;-68
2021/12/30 01:24:09;;;;;;;;;34.33;30.33;;;;;-1.69;80.50;101493.13;6243792;23;8816;-69
2021/12/30 01:27:05;;;;;;;;;31.67;28.00;;;;;-1.78;81.02;101491.75;6243693;23;8809;-69
2021/12/30 01:30:00;;;;;;;;;28.33;24.67;;;;;-1.67;80.64;101492.06;6244052;23;8782;-68
2021/12/30 01:32:56;;;;;;;;;30.67;24.33;;;;;-1.67;80.45;101498.31;6225344;23;8781;-68
2021/12/30 01:35:52;;;;;;;;;21.33;19.00;;;;;-1.67;80.44;101498.31;6243920;23;8901;-68
2021/12/30 01:38:48;;;;;;;;;30.67;27.67;;;;;-1.61;80.42;101491.13;6225150;23;8773;-68
2021/12/30 01:41:44;;;;;;;;;18.67;18.00;;;;;-1.68;79.83;101488.53;6243898;23;8854;-68
2021/12/30 01:44:40;;;;;;;;;23.67;23.67;;;;;-1.60;79.85;101485.50;6244862;22;8927;-68
2021/12/30 01:47:42;;;;;;;;;21.67;21.67;;;;;-1.54;79.74;101492.69;6243606;23;8797;-68
2021/12/30 01:50:38;;;;;;;;;28.67;24.00;;;;;-1.60;81.27;101490.91;6245134;23;8793;-67
2021/12/30 01:53:34;;;;;;;;;27.67;26.33;;;;;-1.64;79.77;101503.25;6244105;23;8809;-68
2021/12/30 01:56:30;;;;;;;;;33.33;33.33;;;;;-1.64;80.45;101511.41;6244000;23;8774;-68
2021/12/30 01:59:26;;;;;;;;;30.00;28.00;;;;;-1.75;80.69;101504.06;6225166;23;8808;-68
2021/12/30 02:02:22;;;;;;;;;33.67;31.00;;;;;-1.78;81.06;101510.75;6224030;23;9567;-67
2021/12/30 02:05:18;;;;;;;;;30.00;27.67;;;;;-1.72;80.97;101500.88;6242810;23;8781;-67
2021/12/30 02:08:15;;;;;;;;;36.00;34.00;;;;;-1.75;81.09;101504.88;6243945;23;8871;-68
2021/12/30 02:11:11;;;;;;;;;35.33;34.33;;;;;-1.70;80.91;101498.75;6243728;23;8777;-68
2021/12/30 02:14:07;;;;;;;;;36.00;33.33;;;;;-1.57;81.28;101501.28;6244074;23;8883;-67
2021/12/30 02:17:04;;;;;;;;;42.33;40.33;;;;;-1.66;81.04;101504.56;6223594;23;8785;-67
2021/12/30 02:20:03;;;;;;;;;34.67;33.67;;;;;-1.73;81.03;101499.22;6243978;23;8777;-67
2021/12/30 02:22:59;;;;;;;;;44.67;38.33;;;;;-1.75;81.72;101513.03;6243678;23;8777;-67
2021/12/30 02:25:57;;;;;;;;;4.00;3.00;;;;;-1.73;81.74;101507.38;6242738;23;8828;-67
2021/12/30 02:28:53;;;;;;;;;47.33;42.67;;;;;-1.58;81.64;101510.50;6224223;23;8793;-67
2021/12/30 02:31:49;;;;;;;;;40.33;37.67;;;;;-1.67;82.05;101509.16;6245888;23;8867;-68
2021/12/30 02:34:44;;;;;;;;;34.67;34.67;;;;;-1.73;81.69;101519.03;6245759;23;9569;-67
2021/12/30 02:37:40;;;;;;;;;36.00;34.00;;;;;-1.89;82.30;101530.50;6247000;22;8859;-67
2021/12/30 02:40:42;;;;;;;;;35.33;32.33;;;;;-1.77;82.19;101523.25;6245994;23;8773;-69
2021/12/30 02:43:37;;;;;;;;;29.67;28.67;;;;;-1.67;81.81;101519.19;6245658;23;8797;-68
2021/12/30 02:46:34;;;;;;;;;31.67;31.00;;;;;-1.70;81.97;101525.88;6226380;23;8799;-68
2021/12/30 02:49:29;;;;;;;;;35.33;28.67;;;;;-1.65;82.03;101520.59;6245726;23;8781;-67
2021/12/30 02:52:26;;;;;;;;;30.67;27.67;;;;;-1.64;82.40;101518.72;6225489;23;8797;-68
2021/12/30 02:55:22;;;;;;;;;39.33;33.67;;;;;-1.67;82.13;101524.63;6226469;23;8789;-68
2021/12/30 02:58:17;;;;;;;;;33.33;30.67;;;;;-1.59;82.07;101524.28;6245388;23;8808;-67
2021/12/30 03:01:17;;;;;;;;;34.33;29.67;;;;;-1.60;82.41;101523.47;6225660;23;8769;-67
2021/12/30 03:04:13;;;;;;;;;25.33;24.00;;;;;-1.58;82.19;101523.22;6244993;23;8809;-68
2021/12/30 03:07:08;;;;;;;;;31.33;29.67;;;;;-1.65;82.09;101522.50;6245299;23;8970;-68
2021/12/30 03:10:05;;;;;;;;;32.00;31.33;;;;;-1.62;82.98;101532.88;6245408;23;8809;-68
2021/12/30 03:13:06;;;;;;;;;33.67;31.67;;;;;-1.72;83.10;101531.53;6225298;23;9476;-67
2021/12/30 03:16:14;;;;;;;;;39.00;37.00;;;;;-1.62;83.05;101536.41;6245133;23;8785;-67
2021/12/30 03:19:09;;;;;;;;;33.33;30.00;;;;;-1.58;83.03;101534.91;6244424;23;8831;-67
2021/12/30 03:22:06;;;;;;;;;41.33;36.67;;;;;-1.64;83.08;101538.53;6245334;23;8782;-67
2021/12/30 03:25:02;;;;;;;;;31.00;31.00;;;;;-1.54;83.28;101543.41;6244795;23;8796;-68
2021/12/30 03:27:58;;;;;;;;;36.00;33.00;;;;;-1.78;82.75;101545.19;6245287;23;8804;-67
2021/12/30 03:30:58;;;;;;;;;33.67;31.00;;;;;-1.87;83.76;101544.66;6225357;23;8765;-68
2021/12/30 03:33:54;;;;;;;;;32.67;32.67;;;;;-1.81;84.12;101542.94;6224735;23;9214;-68
2021/12/30 03:36:49;;;;;;;;;39.67;34.67;;;;;-1.71;83.74;101544.03;6245241;23;8769;-67
2021/12/30 03:39:47;;;;;;;;;45.33;44.33;;;;;-1.69;83.83;101549.22;6244971;23;8786;-68
2021/12/30 03:42:43;;;;;;;;;34.00;33.67;;;;;-1.71;84.06;101545.91;6245165;23;8807;-67
2021/12/30 03:45:39;;;;;;;;;43.00;39.33;;;;;-1.66;84.23;101550.69;6244450;23;8785;-67
2021/12/30 03:48:41;;;;;;;;;36.33;36.33;;;;;-1.66;83.89;101535.22;6244833;23;8821;-67
2021/12/30 03:51:39;;;;;;;;;40.67;40.00;;;;;-1.66;83.48;101548.78;6225119;23;8789;-67
2021/12/30 03:54:35;;;;;;;;;39.33;37.67;;;;;-1.57;83.45;101538.44;6244832;23;8833;-67
2021/12/30 03:57:30;;;;;;;;;41.33;40.00;;;;;-1.58;83.46;101543.03;6246002;23;8785;-67
2021/12/30 04:00:27;;;;;;;;;46.33;42.67;;;;;-1.63;84.72;101545.59;6244809;23;8781;-68
2021/12/30 04:03:23;;;;;;;;;50.67;38.67;;;;;-1.59;84.21;101538.69;6244028;23;8812;-68
2021/12/30 04:06:20;;;;;;;;;46.00;40.67;;;;;-1.58;83.83;101544.94;6223509;23;8781;-68
2021/12/30 04:09:15;;;;;;;;;45.67;43.33;;;;;-1.66;83.63;101550.69;6244451;23;8911;-67
2021/12/30 04:12:11;;;;;;;;;48.33;45.00;;;;;-1.67;84.33;101555.28;6225744;23;9475;-67
2021/12/30 04:15:08;;;;;;;;;49.00;43.67;;;;;-1.60;84.33;101555.19;6244754;23;8928;-68
2021/12/30 04:18:03;;;;;;;;;61.67;48.67;;;;;-1.52;83.44;101549.44;6224824;23;8903;-68
2021/12/30 04:20:59;;;;;;;;;44.33;43.33;;;;;-1.53;83.49;101561.34;6244189;23;8777;-68
2021/12/30 04:23:55;;;;;;;;;46.67;44.33;;;;;-1.57;84.14;101547.41;6243850;23;8820;-68
2021/12/30 04:26:51;;;;;;;;;47.33;45.33;;;;;-1.47;84.28;101555.81;6244150;23;9549;-68
2021/12/30 04:29:47;;;;;;;;;45.33;43.67;;;;;-1.49;84.19;101573.41;6244592;23;8770;-68
2021/12/30 04:32:43;;;;;;;;;56.33;48.67;;;;;-1.48;84.29;101573.16;6244756;23;8804;-67
2021/12/30 04:35:39;;;;;;;;;49.33;47.00;;;;;-1.42;84.27;101571.41;6225488;23;8777;-67
2021/12/30 04:38:35;;;;;;;;;56.33;50.00;;;;;-1.48;83.87;101569.63;6224619;23;8821;-67
2021/12/30 04:41:31;;;;;;;;;59.67;51.33;;;;;-1.41;84.05;101573.91;6224341;23;8801;-67
2021/12/30 04:44:28;;;;;;;;;60.67;48.67;;;;;-1.47;84.04;101582.94;6244305;23;8778;-67
2021/12/30 04:47:25;;;;;;;;;51.67;48.00;;;;;-1.47;84.80;101587.56;6224077;23;8951;-67
2021/12/30 04:50:20;;;;;;;;;67.00;56.33;;;;;-1.41;84.18;101597.50;6244463;23;9488;-67
2021/12/30 04:53:18;;;;;;;;;52.67;47.33;;;;;-1.42;84.05;101596.66;6244168;23;8796;-68
2021/12/30 04:56:14;;;;;;;;;120.50;118.25;;;;;-1.38;84.22;101601.63;6244164;23;9553;-67
2021/12/30 04:59:10;;;;;;;;;60.33;49.00;;;;;-1.33;84.14;101599.06;6245499;23;8777;-66
2021/12/30 05:02:05;;;;;;;;;49.67;46.67;;;;;-1.29;83.89;101597.56;6244447;23;8797;-67
2021/12/30 05:05:01;;;;;;;;;61.33;54.00;;;;;-1.31;83.83;101607.78;6244190;23;8781;-66
2021/12/30 05:07:57;;;;;;;;;86.75;66.25;;;;;-1.33;84.16;101616.16;6243107;23;8793;-66
2021/12/30 05:10:53;;;;;;;;;96.25;73.25;;;;;-1.25;83.92;101612.31;6244225;23;8799;-66
2021/12/30 05:13:48;;;;;;;;;80.75;65.50;;;;;-1.32;83.89;101617.00;6244100;23;8761;-66
2021/12/30 05:16:45;;;;;;;;;86.75;69.50;;;;;-1.33;84.00;101620.78;6243668;23;9456;-66
2021/12/30 05:19:40;;;;;;;;;69.00;55.75;;;;;-1.40;84.41;101621.69;6243156;23;8793;-66
2021/12/30 05:22:36;;;;;;;;;87.50;67.00;;;;;-1.37;84.77;101627.72;6244373;23;8831;-66
2021/12/30 05:25:32;;;;;;;;;83.00;66.25;;;;;-1.31;84.74;101624.91;6243728;23;8777;-66
2021/12/30 05:28:28;;;;;;;;;92.50;71.50;;;;;-1.35;84.12;101628.31;6243994;23;8839;-66
2021/12/30 05:31:25;;;;;;;;;89.00;68.50;;;;;-1.24;84.41;101630.25;6244137;23;8808;-66
2021/12/30 05:34:20;;;;;;;;;90.25;69.00;;;;;-1.31;83.45;101629.50;6244111;23;8789;-66
2021/12/30 05:37:16;;;;;;;;;95.00;76.25;;;;;-1.32;83.74;101625.97;6243855;23;8886;-67
2021/12/30 05:40:15;;;;;;;;;98.00;75.75;;;;;-1.28;83.92;101637.22;6243861;23;8807;-66
2021/12/30 05:43:11;;;;;;;;;94.25;72.25;;;;;-1.24;83.87;101636.50;6244048;23;8785;-66
2021/12/30 05:46:06;;;;;;;;;93.25;73.00;;;;;-1.27;84.11;101639.69;6243736;23;8871;-67
2021/12/30 05:49:02;;;;;;;;;83.00;67.00;;;;;-1.37;83.68;101633.16;6237295;23;8776;-67
2021/12/30 05:51:58;;;;;;;;;73.00;61.00;;;;;-1.41;83.81;101635.47;6242580;23;8891;-67
2021/12/30 05:54:53;;;;;;;;;92.75;71.75;;;;;-1.34;83.80;101646.25;6244637;23;8873;-66
2021/12/30 05:57:52;;;;;;;;;88.25;68.50;;;;;-1.31;83.31;101646.63;6244901;23;8829;-66
2021/12/30 06:00:49;;;;;;;;;97.00;73.75;;;;;-1.34;83.36;101657.94;6245046;22;8789;-67
2021/12/30 06:03:45;;;;;;;;;99.25;75.50;;;;;-1.33;83.78;101658.75;6261921;22;9502;-68
2021/12/30 06:06:40;;;;;;;;;98.25;74.50;;;;;-1.31;83.69;101653.94;6246576;22;8862;-66
2021/12/30 06:09:36;;;;;;;;;89.75;73.00;;;;;-1.19;83.24;101657.53;6247160;22;8773;-68
2021/12/30 06:12:32;;;;;;;;;93.75;75.00;;;;;-1.32;83.46;101660.41;6247156;23;8793;-67
2021/12/30 06:15:28;;;;;;;;;100.50;79.00;;;;;-1.19;83.24;101668.41;6246917;23;8780;-67
2021/12/30 06:18:23;;;;;;;;;111.50;86.25;;;;;-1.26;83.31;101667.66;6247029;23;9486;-67
2021/12/30 06:21:20;;;;;;;;;94.00;68.75;;;;;-1.15;82.96;101672.31;6247033;23;8776;-67
2021/12/30 06:24:15;;;;;;;;;110.50;84.00;;;;;-1.31;82.77;101675.66;6248247;22;8776;-68
2021/12/30 06:27:12;;;;;;;;;111.75;89.00;;;;;-1.23;82.89;101676.16;6244169;22;8836;-67
2021/12/30 06:30:09;;;;;;;;;105.25;80.75;;;;;-1.20;82.62;101677.59;6246181;23;8788;-68
2021/12/30 06:33:04;;;;;;;;;109.00;85.75;;;;;-1.30;82.33;101680.03;6263471;22;9534;-68
2021/12/30 06:36:00;;;;;;;;;93.00;72.75;;;;;-1.31;82.42;101681.91;6246109;23;9491;-67
2021/12/30 06:38:55;;;;;;;;;112.75;93.00;;;;;-1.21;82.49;101678.66;6264753;22;9486;-67
2021/12/30 06:41:51;;;;;;;;;103.25;78.00;;;;;-1.15;82.91;101684.00;6245718;23;8788;-67
2021/12/30 06:44:46;;;;;;;;;98.00;75.50;;;;;-1.02;82.93;101683.00;6246554;22;9455;-67
2021/12/30 06:47:46;;;;;;;;;94.00;73.00;;;;;-0.94;82.18;101685.38;6245808;23;8804;-67
2021/12/30 06:50:52;;;;;;;;;89.00;70.75;;;;;-0.88;82.28;101680.94;6245526;23;8886;-68
2021/12/30 06:53:47;;;;;;;;;99.25;74.00;;;;;-0.77;81.55;101674.69;6245200;23;8785;-67
2021/12/30 06:56:43;;;;;;;;;86.75;69.75;;;;;-0.85;82.23;101692.13;6245228;23;8808;-67
2021/12/30 06:59:40;;;;;;;;;86.75;66.25;;;;;-0.80;81.03;101683.31;6244941;23;8859;-68
2021/12/30 07:02:35;;;;;;;;;95.25;71.50;;;;;-0.86;81.81;101692.38;6246088;23;8894;-67
2021/12/30 07:05:32;;;;;;;;;93.00;75.00;;;;;-0.91;81.78;101698.53;6225866;23;8793;-67
2021/12/30 07:08:27;;;;;;;;;81.25;66.25;;;;;-0.80;81.63;101696.91;6244761;23;8781;-67
2021/12/30 07:11:23;;;;;;;;;104.75;76.00;;;;;-0.68;81.61;101696.94;6225082;23;8805;-67
2021/12/30 07:14:21;;;;;;;;;93.50;72.00;;;;;-0.65;80.60;101707.34;6244820;23;8802;-67
2021/12/30 07:17:17;;;;;;;;;89.50;70.25;;;;;-0.62;80.30;101704.97;6243726;23;8789;-67
2021/12/30 07:20:13;;;;;;;;;89.25;68.00;;;;;-0.65;79.73;101713.59;6245171;23;8880;-67
2021/12/30 07:23:09;;;;;;;;;57.75;49.50;;;;;-0.88;81.09;101711.63;6244509;23;9494;-66
2021/12/30 07:26:04;;;;;;;;;82.00;65.00;;;;;-0.68;82.07;101718.69;6244961;23;8825;-67
2021/12/30 07:29:00;;;;;;;;;77.67;63.33;;;;;-0.60;82.19;101721.06;6224934;23;8778;-67
2021/12/30 07:31:56;;;;;;;;;69.67;58.33;;;;;-0.62;81.54;101718.56;6225052;23;8781;-67
2021/12/30 07:34:52;;;;;;;;;71.00;59.00;;;;;-0.54;81.89;101728.28;6240043;23;8816;-66
2021/12/30 07:37:49;;;;;;;;;72.50;57.25;;;;;-0.39;81.22;101725.94;6244029;23;8790;-67
2021/12/30 07:40:44;;;;;;;;;88.00;68.00;;;;;-0.52;81.79;101731.63;6243428;23;8933;-67
2021/12/30 07:43:40;;;;;;;;;43.00;37.00;;;;;-0.43;81.39;101727.50;6243733;23;8812;-67
2021/12/30 07:46:36;;;;;;;;;70.00;58.00;;;;;-0.48;80.94;101731.97;6243931;23;9484;-67
2021/12/30 07:49:32;;;;;;;;;93.00;69.25;;;;;-0.35;80.60;101724.44;6243470;23;8785;-67
2021/12/30 07:52:28;;;;;;;;;95.00;69.50;;;;;-0.51;81.85;101735.97;6244031;23;8789;-67
2021/12/30 07:55:23;;;;;;;;;88.75;70.50;;;;;-0.47;82.60;101734.44;6243608;23;8778;-67
2021/12/30 07:58:19;;;;;;;;;84.00;68.00;;;;;-0.45;82.84;101721.47;6223794;23;8778;-66
2021/12/30 08:01:14;;;;;;;;;84.25;67.25;;;;;-0.39;81.66;101736.81;6245684;23;8843;-67
2021/12/30 08:04:10;;;;;;;;;89.00;69.00;;;;;-0.39;81.47;101738.72;6244683;23;8809;-67
2021/12/30 08:07:06;;;;;;;;;78.67;60.33;;;;;-0.28;80.82;101735.22;6244598;23;8831;-68
2021/12/30 08:10:03;;;;;;;;;83.67;67.00;;;;;-0.22;80.35;101736.19;6224776;23;8781;-69
2021/12/30 08:13:02;;;;;;;;;75.67;59.67;;;;;-0.29;79.70;101745.25;6244117;23;8777;-68
2021/12/30 08:15:58;;;;;;;;;68.67;56.00;;;;;-0.09;79.99;101738.66;6222367;23;8785;-70
2021/12/30 08:18:54;;;;;;;;;77.33;59.33;;;;;-0.21;79.67;101725.06;6242943;23;8874;-70
2021/12/30 08:21:49;;;;;;;;;59.67;52.67;;;;;-0.26;79.35;101724.94;6223619;23;8854;-70
2021/12/30 08:24:45;;;;;;;;;76.33;61.00;;;;;-0.30;80.83;101718.31;6243000;23;8813;-70
2021/12/30 08:27:42;;;;;;;;;23.00;17.00;;;;;-0.44;80.32;101716.88;6222610;23;8773;-70
2021/12/30 08:30:37;;;;;;;;;72.67;56.33;;;;;-0.55;80.80;101723.91;6241998;23;8892;-71
2021/12/30 08:33:33;;;;;;;;;66.33;54.00;;;;;-0.43;80.57;101711.19;6242960;23;8817;-70
2021/12/30 08:36:28;;;;;;;;;71.00;58.00;;;;;-0.30;81.45;101712.88;6242651;23;8811;-70
2021/12/30 08:39:24;;;;;;;;;64.00;55.67;;;;;-0.23;81.09;101708.16;6243382;23;8812;-69
2021/12/30 08:42:23;;;;;;;;;72.00;58.33;;;;;-0.17;79.58;101717.25;6243965;23;8819;-69
2021/12/30 08:45:20;;;;;;;;;71.33;60.67;;;;;-0.27;80.21;101723.28;6244246;23;8786;-70
2021/12/30 08:48:16;;;;;;;;;71.67;56.33;;;;;-0.10;79.41;101726.13;6226582;23;8910;-67
2021/12/30 08:51:12;;;;;;;;;71.00;59.00;;;;;-0.12;79.90;101723.66;6240699;23;8800;-69
2021/12/30 08:54:08;;;;;;;;;57.33;49.00;;;;;-0.12;80.30;101717.38;6261831;22;8777;-69
2021/12/30 08:57:04;;;;;;;;;73.67;58.00;;;;;-0.06;80.70;101730.06;6259785;22;8780;-69
2021/12/30 09:00:02;;;;;;;;;75.67;60.00;;;;;0.10;79.37;101720.38;6241841;23;9525;-70
2021/12/30 09:03:00;;;;;;;;;74.33;56.00;;;;;0.08;79.57;101726.06;6243983;23;8899;-68
2021/12/30 09:05:56;;;;;;;;;68.33;52.33;;;;;-0.03;80.05;101721.41;6243379;23;8777;-69
2021/12/30 09:08:52;;;;;;;;;55.33;49.67;;;;;-0.09;78.07;101725.06;6241319;23;8792;-69
2021/12/30 09:11:48;;;;;;;;;60.33;49.67;;;;;0.02;78.66;101726.97;6243728;22;8785;-69
2021/12/30 09:14:44;;;;;;;;;60.00;53.33;;;;;0.00;78.59;101723.69;6243641;23;8788;-70
2021/12/30 09:17:42;;;;;;;;;41.67;34.67;;;;;-0.25;78.74;101718.41;6243605;23;8958;-69
2021/12/30 09:20:39;;;;;;;;;59.67;50.33;;;;;0.02;78.93;101726.16;6243510;23;8776;-67
2021/12/30 09:23:35;;;;;;;;;49.00;45.00;;;;;0.07;77.90;101723.53;6243783;22;8847;-69
2021/12/30 09:26:31;;;;;;;;;51.33;45.00;;;;;0.01;78.03;101728.06;6243418;23;8914;-70
2021/12/30 09:29:26;;;;;;;;;40.00;40.00;;;;;-0.11;78.33;101735.34;6243232;23;8792;-67
2021/12/30 09:32:22;;;;;;;;;48.00;44.33;;;;;0.03;78.34;101742.25;6241332;23;8832;-67
2021/12/30 09:35:18;;;;;;;;;44.33;42.67;;;;;0.16;77.29;101747.47;6243116;23;8800;-68
2021/12/30 09:38:14;;;;;;;;;54.00;48.00;;;;;0.19;77.33;101746.97;6243128;23;8809;-66
2021/12/30 09:41:10;;;;;;;;;54.67;49.00;;;;;0.20;78.26;101740.47;6243631;23;8800;-66
2021/12/30 09:44:11;;;;;;;;;56.67;49.00;;;;;0.06;78.48;101741.75;6243592;23;8777;-68
2021/12/30 09:47:07;;;;;;;;;69.33;55.67;;;;;0.14;78.24;101732.41;6243146;22;8878;-68
2021/12/30 09:50:03;;;;;;;;;68.67;55.67;;;;;0.19;78.73;101722.50;6242241;23;9558;-68
2021/12/30 09:53:00;;;;;;;;;57.33;49.67;;;;;0.19;78.32;101716.22;6223615;23;8824;-68
2021/12/30 09:55:57;;;;;;;;;70.00;57.33;;;;;0.26;78.44;101725.91;6242112;23;8781;-67
2021/12/30 09:58:52;;;;;;;;;72.00;57.67;;;;;0.30;79.09;101720.81;6241917;23;8790;-68
2021/12/30 10:01:48;;;;;;;;;63.67;54.00;;;;;0.48;79.37;101712.53;6242163;23;8828;-68
2021/12/30 10:04:43;;;;;;;;;75.67;61.67;;;;;0.46;78.96;101719.25;6243394;22;8797;-67
2021/12/30 10:07:41;;;;;;;;;85.00;64.00;;;;;0.27;79.16;101713.97;6241237;23;8804;-68
2021/12/30 10:10:39;;;;;;;;;81.67;62.00;;;;;0.36;78.39;101711.72;6242338;23;8823;-68
2021/12/30 10:13:34;;;;;;;;;86.00;67.33;;;;;0.24;78.35;101714.47;6221875;23;8922;-67
2021/12/30 10:16:30;;;;;;;;;70.00;55.00;;;;;0.28;77.62;101717.50;6221855;23;8785;-68
2021/12/30 10:19:26;;;;;;;;;75.33;61.33;;;;;0.34;77.94;101713.84;6221867;23;9539;-67
2021/12/30 10:22:24;;;;;;;;;80.67;63.00;;;;;0.41;76.82;101714.56;6241909;23;8824;-68
2021/12/30 10:25:36;;;;;;;;;73.00;60.00;;;;;0.31;78.00;101722.50;6221873;23;9597;-68
2021/12/30 10:28:36;;;;;;;;;70.67;57.00;;;;;0.42;78.39;101712.66;6243028;23;8805;-69
2021/12/30 10:31:33;;;;;;;;;85.67;65.33;;;;;0.43;77.61;101717.84;6221842;23;8805;-68
2021/12/30 10:34:29;;;;;;;;;92.33;70.67;;;;;0.47;78.03;101718.22;6223392;23;8815;-69
2021/12/30 10:37:24;;;;;;;;;92.33;71.33;;;;;0.23;77.92;101712.81;6242769;23;8797;-68
2021/12/30 10:40:29;;;;;;;;;78.33;63.67;;;;;0.35;79.26;101706.50;6222363;23;9530;-69
2021/12/30 10:43:33;;;;;;;;;73.67;54.00;;;;;0.41;78.45;101714.56;6243104;23;9484;-68
2021/12/30 10:46:30;;;;;;;;;86.33;68.33;;;;;0.38;79.27;101715.00;6241872;23;8789;-68
2021/12/30 10:49:27;;;;;;;;;70.67;57.67;;;;;0.51;79.79;101716.66;6241750;23;8789;-71
2021/12/30 10:52:24;;;;;;;;;77.67;64.67;;;;;0.68;78.88;101716.75;6263196;22;8870;-69
2021/12/30 10:55:22;;;;;;;;;61.00;51.33;;;;;0.65;77.83;101717.25;6244717;23;8776;-69
2021/12/30 10:58:25;;;;;;;;;66.67;52.00;;;;;0.43;77.31;101706.16;6244571;23;8792;-69
2021/12/30 11:01:24;;;;;;;;;61.67;50.67;;;;;0.56;77.47;101708.63;6242636;23;8780;-70
2021/12/30 11:04:21;;;;;;;;;85.00;65.33;;;;;0.48;77.59;101707.09;6242715;23;8776;-70
2021/12/30 11:07:37;;;;;;;;;52.33;48.67;;;;;0.31;77.92;101708.03;6244811;23;9518;-70
2021/12/30 11:10:37;;;;;;;;;61.67;49.67;;;;;0.49;77.82;101713.38;6242595;23;8777;-71
2021/12/30 11:13:33;;;;;;;;;66.67;52.33;;;;;0.64;77.54;101718.31;6245058;23;9467;-71
2021/12/30 11:16:29;;;;;;;;;53.33;49.00;;;;;0.52;77.10;101710.97;6243474;23;8801;-72
2021/12/30 11:19:28;;;;;;;;;64.00;50.67;;;;;0.64;77.86;101707.44;6242371;23;8780;-70
2021/12/30 11:22:27;;;;;;;;;51.33;46.67;;;;;0.69;77.33;101705.66;6262562;22;9482;-73
2021/12/30 11:25:24;;;;;;;;;73.67;58.00;;;;;0.59;76.44;101713.56;6242242;23;8823;-73
2021/12/30 11:28:20;;;;;;;;;62.67;52.00;;;;;0.61;76.54;101705.16;6242251;23;8823;-73
2021/12/30 11:31:20;;;;;;;;;64.33;56.00;;;;;0.78;76.37;101711.53;6244707;23;8870;-73
2021/12/30 11:34:22;;;;;;;;;71.33;60.00;;;;;0.80;76.36;101712.13;6242295;23;8789;-73
2021/12/30 11:37:19;;;;;;;;;70.00;56.33;;;;;0.63;77.10;101703.88;6244784;23;8793;-73
2021/12/30 11:40:18;;;;;;;;;66.00;55.33;;;;;0.65;77.29;101704.47;6244569;23;9547;-72
2021/12/30 11:43:16;;;;;;;;;85.00;68.00;;;;;0.53;77.24;101701.75;6244616;23;8780;-73
2021/12/30 11:46:37;;;;;;;;;90.00;71.00;;;;;0.65;76.93;101704.47;6244798;23;8800;-72
2021/12/30 11:49:52;;;;;;;;;98.25;77.00;;;;;0.65;76.75;101711.81;6244470;23;8796;-74
2021/12/30 11:52:55;;;;;;;;;87.25;62.75;;;;;0.53;75.77;101711.81;6244259;23;8809;-74
2021/12/30 11:56:12;;;;;;;;;109.25;88.25;;;;;0.53;75.97;101703.63;6244785;23;8823;-74
2021/12/30 11:59:10;;;;;;;;;130.75;103.50;;;;;0.48;77.20;101709.81;6242089;23;8801;-73
2021/12/30 12:02:36;;;;;;;;;113.75;88.75;;;;;0.46;76.48;101709.25;6244524;23;8867;-75
2021/12/30 12:05:42;;;;;;;;;124.00;102.75;;;;;0.47;77.80;101710.06;6244230;22;8903;-74
2021/12/30 12:08:45;;;;;;;;;123.25;107.00;;;;;0.54;78.23;101719.75;6244248;23;8835;-71
2021/12/30 12:11:41;;;;;;;;;112.50;85.00;;;;;0.45;77.35;101717.63;6244537;23;8800;-73
2021/12/30 12:14:39;;;;;;;;;128.25;99.50;;;;;0.45;77.74;101732.06;6244172;23;8797;-71
2021/12/30 12:17:40;;;;;;;;;128.25;105.25;;;;;0.44;78.40;101727.69;6244113;23;8828;-72
2021/12/30 12:20:36;;;;;;;;;112.00;83.25;;;;;0.54;77.48;101735.25;6244292;23;8800;-72
2021/12/30 12:23:45;;;;;;;;;106.25;82.25;;;;;0.55;78.12;101734.19;6244383;23;8797;-71
2021/12/30 12:26:40;;;;;;;;;100.75;80.00;;;;;0.57;77.53;101733.94;6244304;23;8879;-72
2021/12/30 12:29:48;;;;;;;;;91.67;68.33;;;;;0.45;77.29;101732.06;6244221;23;8793;-71
2021/12/30 12:32:44;;;;;;;;;134.25;107.00;;;;;0.52;76.27;101735.47;6244053;23;8815;-72
2021/12/30 12:35:40;;;;;;;;;83.00;68.33;;;;;0.50;76.26;101736.78;6244236;22;8865;-72
2021/12/30 12:38:39;;;;;;;;;69.00;56.33;;;;;0.43;76.05;101727.91;6241725;23;8789;-71
2021/12/30 12:41:35;;;;;;;;;90.33;72.00;;;;;0.40;77.00;101733.84;6244141;23;8796;-71
2021/12/30 12:44:31;;;;;;;;;70.33;57.33;;;;;0.39;77.05;101733.03;6243831;23;8796;-73
2021/12/30 12:47:27;;;;;;;;;77.67;61.33;;;;;0.42;76.52;101731.72;6243776;22;8851;-73
2021/12/30 12:50:40;;;;;;;;;64.33;51.67;;;;;0.38;76.72;101733.25;6242980;23;8781;-72
2021/12/30 12:53:43;;;;;;;;;99.75;76.00;;;;;0.37;77.06;101735.13;6223875;23;8892;-73
2021/12/30 12:56:40;;;;;;;;;42.67;39.33;;;;;0.47;75.56;101735.38;6242638;23;8801;-74
2021/12/30 12:59:38;;;;;;;;;42.00;36.33;;;;;0.36;74.63;101732.66;6242139;23;8813;-74
2021/12/30 13:02:33;;;;;;;;;39.00;31.00;;;;;0.30;76.67;101733.59;6242703;23;8824;-74
2021/12/30 13:05:29;;;;;;;;;57.33;46.00;;;;;0.31;76.74;101737.97;6242871;23;8785;-74
2021/12/30 13:08:30;;;;;;;;;46.00;45.00;;;;;0.11;76.20;101752.78;6242498;23;8915;-74
2021/12/30 13:11:36;;;;;;;;;55.33;49.00;;;;;0.21;77.80;101758.44;6242660;23;9627;-72
2021/12/30 13:14:32;;;;;;;;;58.33;49.00;;;;;0.25;78.22;101754.19;6243136;23;8770;-73
2021/12/30 13:17:20;;;;;;;;;56.67;47.33;;;;;0.22;77.98;101767.44;6242609;23;8805;-70
2021/12/30 13:20:16;;;;;;;;;55.33;47.33;;;;;0.07;77.32;101761.63;6243619;23;9495;-72
2021/12/30 13:23:12;;;;;;;;;42.00;42.00;;;;;0.14;77.27;101760.44;6244005;23;8887;-71
2021/12/30 13:26:10;;;;;;;;;56.67;48.33;;;;;0.17;77.69;101760.00;6240980;23;8781;-71
2021/12/30 13:29:06;;;;;;;;;62.33;51.67;;;;;0.18;77.26;101763.53;6243721;23;8927;-72
2021/12/30 13:32:14;;;;;;;;;75.33;58.67;;;;;0.22;77.89;101770.97;6243225;23;8815;-69
2021/12/30 13:35:22;;;;;;;;;64.00;52.00;;;;;0.23;77.62;101775.38;6244403;23;8805;-68
2021/12/30 13:38:18;;;;;;;;;55.33;45.67;;;;;0.13;76.55;101775.13;6225071;23;9475;-68